sensor_id;sensor_type;location;lat;lon;timestamp;P1;durP1;ratioP1;P2;durP2;ratioP2
1577;SDS011;57623;53.608;10.004;2024-03-02T00:01:06;17.80;;;14.33;;
1577;SDS011;57623;53.608;10.004;2024-03-02T00:03:34;15.60;;;13.90;;
1577;SDS011;57623;53.608;10.004;2024-03-02T00:06:04;17.60;;;13.87;;
1577;SDS011;57623;53.608;10.004;2024-03-02T00:08:32;16.00;;;13.27;;
1577;SDS011;57623;53.608;10.004;2024-03-02T00:11:00;15.53;;;13.93;;
1577;SDS011;57623;53.608;10.004;2024-03-02T00:13:31;15.80;;;13.60;;
1577;SDS011;57623;53.608;10.004;2024-03-02T00:16:00;18.00;;;14.10;;
1577;SDS011;57623;53.608;10.004;2024-03-02T00:18:31;17.30;;;13.70;;
1577;SDS011;57623;53.608;10.004;2024-03-02T00:21:01;17.30;;;13.30;;
1577;SDS011;57623;53.608;10.004;2024-03-02T00:23:30;17.50;;;14.03;;
1577;SDS011;57623;53.608;10.004;2024-03-02T00:25:59;16.23;;;13.40;;
1577;SDS011;57623;53.608;10.004;2024-03-02T00:28:29;16.60;;;14.80;;
1577;SDS011;57623;53.608;10.004;2024-03-02T00:31:02;18.33;;;14.50;;
1577;SDS011;57623;53.608;10.004;2024-03-02T00:33:32;19.07;;;15.50;;
1577;SDS011;57623;53.608;10.004;2024-03-02T00:36:01;20.77;;;14.70;;
1577;SDS011;57623;53.608;10.004;2024-03-02T00:38:30;17.77;;;14.77;;
1577;SDS011;57623;53.608;10.004;2024-03-02T00:40:59;18.03;;;14.97;;
1577;SDS011;57623;53.608;10.004;2024-03-02T00:43:45;17.30;;;14.87;;
1577;SDS011;57623;53.608;10.004;2024-03-02T00:46:15;20.00;;;15.00;;
1577;SDS011;57623;53.608;10.004;2024-03-02T00:48:48;20.67;;;16.30;;
1577;SDS011;57623;53.608;10.004;2024-03-02T00:51:21;20.20;;;16.30;;
1577;SDS011;57623;53.608;10.004;2024-03-02T00:53:51;20.10;;;16.20;;
1577;SDS011;57623;53.608;10.004;2024-03-02T00:56:22;22.00;;;16.90;;
1577;SDS011;57623;53.608;10.004;2024-03-02T00:58:52;21.23;;;17.53;;
1577;SDS011;57623;53.608;10.004;2024-03-02T01:01:20;23.40;;;17.83;;
1577;SDS011;57623;53.608;10.004;2024-03-02T01:03:49;23.93;;;18.80;;
1577;SDS011;57623;53.608;10.004;2024-03-02T01:06:16;22.57;;;17.70;;
1577;SDS011;57623;53.608;10.004;2024-03-02T01:08:45;25.97;;;19.40;;
1577;SDS011;57623;53.608;10.004;2024-03-02T01:11:16;26.80;;;18.73;;
1577;SDS011;57623;53.608;10.004;2024-03-02T01:13:45;26.43;;;19.17;;
1577;SDS011;57623;53.608;10.004;2024-03-02T01:16:15;22.60;;;17.87;;
1577;SDS011;57623;53.608;10.004;2024-03-02T01:18:43;24.97;;;20.27;;
1577;SDS011;57623;53.608;10.004;2024-03-02T01:21:11;23.60;;;19.20;;
1577;SDS011;57623;53.608;10.004;2024-03-02T01:23:39;25.63;;;18.57;;
1577;SDS011;57623;53.608;10.004;2024-03-02T01:26:07;25.10;;;19.77;;
1577;SDS011;57623;53.608;10.004;2024-03-02T01:28:35;28.07;;;19.20;;
1577;SDS011;57623;53.608;10.004;2024-03-02T01:31:03;25.33;;;20.07;;
1577;SDS011;57623;53.608;10.004;2024-03-02T01:33:33;28.63;;;21.00;;
1577;SDS011;57623;53.608;10.004;2024-03-02T01:36:01;27.20;;;20.30;;
1577;SDS011;57623;53.608;10.004;2024-03-02T01:38:29;27.73;;;21.00;;
1577;SDS011;57623;53.608;10.004;2024-03-02T01:40:57;28.10;;;20.47;;
1577;SDS011;57623;53.608;10.004;2024-03-02T01:43:25;28.73;;;20.73;;
1577;SDS011;57623;53.608;10.004;2024-03-02T01:45:54;25.87;;;18.97;;
1577;SDS011;57623;53.608;10.004;2024-03-02T01:48:23;29.03;;;21.33;;
1577;SDS011;57623;53.608;10.004;2024-03-02T01:50:52;26.67;;;20.70;;
1577;SDS011;57623;53.608;10.004;2024-03-02T01:53:20;29.13;;;20.40;;
1577;SDS011;57623;53.608;10.004;2024-03-02T01:55:48;29.97;;;20.00;;
1577;SDS011;57623;53.608;10.004;2024-03-02T01:58:15;27.60;;;21.93;;
1577;SDS011;57623;53.608;10.004;2024-03-02T02:00:44;27.83;;;21.03;;
1577;SDS011;57623;53.608;10.004;2024-03-02T02:03:12;28.20;;;21.37;;
1577;SDS011;57623;53.608;10.004;2024-03-02T02:05:41;26.60;;;20.17;;
1577;SDS011;57623;53.608;10.004;2024-03-02T02:08:11;26.33;;;20.07;;
1577;SDS011;57623;53.608;10.004;2024-03-02T02:10:39;29.50;;;20.83;;
1577;SDS011;57623;53.608;10.004;2024-03-02T02:13:07;30.57;;;22.30;;
1577;SDS011;57623;53.608;10.004;2024-03-02T02:15:35;29.33;;;20.20;;
1577;SDS011;57623;53.608;10.004;2024-03-02T02:18:04;27.80;;;21.93;;
1577;SDS011;57623;53.608;10.004;2024-03-02T02:20:32;29.40;;;22.40;;
1577;SDS011;57623;53.608;10.004;2024-03-02T02:23:02;29.43;;;22.10;;
1577;SDS011;57623;53.608;10.004;2024-03-02T02:25:32;30.33;;;21.53;;
1577;SDS011;57623;53.608;10.004;2024-03-02T02:28:00;28.20;;;21.40;;
1577;SDS011;57623;53.608;10.004;2024-03-02T02:30:30;28.30;;;21.40;;
1577;SDS011;57623;53.608;10.004;2024-03-02T02:32:59;30.87;;;21.77;;
1577;SDS011;57623;53.608;10.004;2024-03-02T02:35:27;31.43;;;21.87;;
1577;SDS011;57623;53.608;10.004;2024-03-02T02:37:55;29.20;;;21.83;;
1577;SDS011;57623;53.608;10.004;2024-03-02T02:40:26;30.80;;;22.03;;
1577;SDS011;57623;53.608;10.004;2024-03-02T02:42:55;29.10;;;21.33;;
1577;SDS011;57623;53.608;10.004;2024-03-02T02:45:23;30.43;;;21.73;;
1577;SDS011;57623;53.608;10.004;2024-03-02T02:47:52;28.37;;;21.30;;
1577;SDS011;57623;53.608;10.004;2024-03-02T02:50:20;32.80;;;22.13;;
1577;SDS011;57623;53.608;10.004;2024-03-02T02:52:48;29.20;;;21.40;;
1577;SDS011;57623;53.608;10.004;2024-03-02T02:55:16;28.70;;;21.60;;
1577;SDS011;57623;53.608;10.004;2024-03-02T02:57:46;32.07;;;23.17;;
1577;SDS011;57623;53.608;10.004;2024-03-02T03:00:14;30.70;;;22.70;;
1577;SDS011;57623;53.608;10.004;2024-03-02T03:02:46;30.70;;;22.83;;
1577;SDS011;57623;53.608;10.004;2024-03-02T03:05:17;28.00;;;21.23;;
1577;SDS011;57623;53.608;10.004;2024-03-02T03:07:46;30.40;;;21.87;;
1577;SDS011;57623;53.608;10.004;2024-03-02T03:10:16;31.97;;;22.63;;
1577;SDS011;57623;53.608;10.004;2024-03-02T03:12:48;27.60;;;21.93;;
1577;SDS011;57623;53.608;10.004;2024-03-02T03:15:16;26.73;;;20.03;;
1577;SDS011;57623;53.608;10.004;2024-03-02T03:17:45;30.40;;;21.53;;
1577;SDS011;57623;53.608;10.004;2024-03-02T03:20:13;28.73;;;21.50;;
1577;SDS011;57623;53.608;10.004;2024-03-02T03:22:42;26.73;;;20.30;;
1577;SDS011;57623;53.608;10.004;2024-03-02T03:25:10;28.27;;;20.93;;
1577;SDS011;57623;53.608;10.004;2024-03-02T03:27:38;30.67;;;22.50;;
1577;SDS011;57623;53.608;10.004;2024-03-02T03:30:10;27.50;;;21.83;;
1577;SDS011;57623;53.608;10.004;2024-03-02T03:32:38;30.10;;;21.57;;
1577;SDS011;57623;53.608;10.004;2024-03-02T03:35:06;27.53;;;20.83;;
1577;SDS011;57623;53.608;10.004;2024-03-02T03:37:35;25.83;;;20.90;;
1577;SDS011;57623;53.608;10.004;2024-03-02T03:40:03;29.93;;;23.20;;
1577;SDS011;57623;53.608;10.004;2024-03-02T03:42:37;27.70;;;20.87;;
1577;SDS011;57623;53.608;10.004;2024-03-02T03:45:05;27.70;;;20.50;;
1577;SDS011;57623;53.608;10.004;2024-03-02T03:47:35;25.67;;;19.90;;
1577;SDS011;57623;53.608;10.004;2024-03-02T03:50:04;29.60;;;21.73;;
1577;SDS011;57623;53.608;10.004;2024-03-02T03:52:34;26.97;;;21.07;;
1577;SDS011;57623;53.608;10.004;2024-03-02T03:55:02;27.13;;;21.37;;
1577;SDS011;57623;53.608;10.004;2024-03-02T03:57:31;27.00;;;20.60;;
1577;SDS011;57623;53.608;10.004;2024-03-02T03:59:59;23.77;;;18.80;;
1577;SDS011;57623;53.608;10.004;2024-03-02T04:02:27;28.67;;;21.40;;
1577;SDS011;57623;53.608;10.004;2024-03-02T04:04:57;27.63;;;20.60;;
1577;SDS011;57623;53.608;10.004;2024-03-02T04:07:25;26.97;;;20.50;;
1577;SDS011;57623;53.608;10.004;2024-03-02T04:09:53;27.87;;;21.43;;
1577;SDS011;57623;53.608;10.004;2024-03-02T04:12:21;27.73;;;20.73;;
1577;SDS011;57623;53.608;10.004;2024-03-02T04:14:49;27.40;;;20.73;;
1577;SDS011;57623;53.608;10.004;2024-03-02T04:17:17;26.67;;;20.33;;
1577;SDS011;57623;53.608;10.004;2024-03-02T04:19:45;26.23;;;20.50;;
1577;SDS011;57623;53.608;10.004;2024-03-02T04:22:14;23.87;;;19.97;;
1577;SDS011;57623;53.608;10.004;2024-03-02T04:24:50;26.63;;;20.10;;
1577;SDS011;57623;53.608;10.004;2024-03-02T04:27:18;25.40;;;20.23;;
1577;SDS011;57623;53.608;10.004;2024-03-02T04:29:46;27.80;;;21.10;;
1577;SDS011;57623;53.608;10.004;2024-03-02T04:32:14;26.87;;;21.00;;
1577;SDS011;57623;53.608;10.004;2024-03-02T04:34:42;26.00;;;19.27;;
1577;SDS011;57623;53.608;10.004;2024-03-02T04:37:10;27.10;;;20.10;;
1577;SDS011;57623;53.608;10.004;2024-03-02T04:39:41;27.53;;;20.37;;
1577;SDS011;57623;53.608;10.004;2024-03-02T04:42:10;29.43;;;21.83;;
1577;SDS011;57623;53.608;10.004;2024-03-02T04:44:37;26.60;;;21.13;;
1577;SDS011;57623;53.608;10.004;2024-03-02T04:47:05;27.60;;;20.70;;
1577;SDS011;57623;53.608;10.004;2024-03-02T04:49:33;24.93;;;19.50;;
1577;SDS011;57623;53.608;10.004;2024-03-02T04:52:02;28.33;;;21.77;;
1577;SDS011;57623;53.608;10.004;2024-03-02T04:54:30;27.80;;;21.13;;
1577;SDS011;57623;53.608;10.004;2024-03-02T04:57:00;25.90;;;20.10;;
1577;SDS011;57623;53.608;10.004;2024-03-02T04:59:28;25.73;;;19.20;;
1577;SDS011;57623;53.608;10.004;2024-03-02T05:01:56;25.97;;;19.80;;
1577;SDS011;57623;53.608;10.004;2024-03-02T05:04:24;24.70;;;20.00;;
1577;SDS011;57623;53.608;10.004;2024-03-02T05:06:52;26.03;;;19.93;;
1577;SDS011;57623;53.608;10.004;2024-03-02T05:09:22;23.10;;;19.97;;
1577;SDS011;57623;53.608;10.004;2024-03-02T05:11:50;26.93;;;20.60;;
1577;SDS011;57623;53.608;10.004;2024-03-02T05:14:39;26.90;;;20.07;;
1577;SDS011;57623;53.608;10.004;2024-03-02T05:17:07;27.53;;;20.23;;
1577;SDS011;57623;53.608;10.004;2024-03-02T05:19:35;27.87;;;21.40;;
1577;SDS011;57623;53.608;10.004;2024-03-02T05:22:03;25.83;;;19.97;;
1577;SDS011;57623;53.608;10.004;2024-03-02T05:24:32;25.60;;;21.27;;
1577;SDS011;57623;53.608;10.004;2024-03-02T05:27:00;25.87;;;20.60;;
1577;SDS011;57623;53.608;10.004;2024-03-02T05:29:28;26.70;;;20.37;;
1577;SDS011;57623;53.608;10.004;2024-03-02T05:31:57;25.53;;;20.00;;
1577;SDS011;57623;53.608;10.004;2024-03-02T05:34:25;26.37;;;19.30;;
1577;SDS011;57623;53.608;10.004;2024-03-02T05:36:53;22.47;;;18.97;;
1577;SDS011;57623;53.608;10.004;2024-03-02T05:39:22;26.97;;;19.63;;
1577;SDS011;57623;53.608;10.004;2024-03-02T05:41:50;24.93;;;19.40;;
1577;SDS011;57623;53.608;10.004;2024-03-02T05:44:18;23.37;;;19.20;;
1577;SDS011;57623;53.608;10.004;2024-03-02T05:46:46;28.37;;;21.40;;
1577;SDS011;57623;53.608;10.004;2024-03-02T05:49:15;27.00;;;19.53;;
1577;SDS011;57623;53.608;10.004;2024-03-02T05:51:44;25.07;;;20.20;;
1577;SDS011;57623;53.608;10.004;2024-03-02T05:54:12;24.87;;;19.50;;
1577;SDS011;57623;53.608;10.004;2024-03-02T05:56:40;22.50;;;17.37;;
1577;SDS011;57623;53.608;10.004;2024-03-02T05:59:08;23.67;;;19.87;;
1577;SDS011;57623;53.608;10.004;2024-03-02T06:01:39;24.47;;;19.50;;
1577;SDS011;57623;53.608;10.004;2024-03-02T06:04:07;24.63;;;18.03;;
1577;SDS011;57623;53.608;10.004;2024-03-02T06:06:37;25.33;;;19.77;;
1577;SDS011;57623;53.608;10.004;2024-03-02T06:09:05;24.90;;;20.23;;
1577;SDS011;57623;53.608;10.004;2024-03-02T06:11:34;23.90;;;19.17;;
1577;SDS011;57623;53.608;10.004;2024-03-02T06:14:02;23.13;;;19.03;;
1577;SDS011;57623;53.608;10.004;2024-03-02T06:16:30;24.37;;;19.63;;
1577;SDS011;57623;53.608;10.004;2024-03-02T06:18:59;27.00;;;19.27;;
1577;SDS011;57623;53.608;10.004;2024-03-02T06:21:27;22.30;;;18.30;;
1577;SDS011;57623;53.608;10.004;2024-03-02T06:23:57;23.13;;;18.10;;
1577;SDS011;57623;53.608;10.004;2024-03-02T06:26:25;25.70;;;19.27;;
1577;SDS011;57623;53.608;10.004;2024-03-02T06:28:53;24.53;;;18.90;;
1577;SDS011;57623;53.608;10.004;2024-03-02T06:31:21;24.10;;;19.57;;
1577;SDS011;57623;53.608;10.004;2024-03-02T06:33:49;24.27;;;18.70;;
1577;SDS011;57623;53.608;10.004;2024-03-02T06:36:17;23.13;;;18.57;;
1577;SDS011;57623;53.608;10.004;2024-03-02T06:38:45;23.00;;;18.00;;
1577;SDS011;57623;53.608;10.004;2024-03-02T06:41:14;25.03;;;18.90;;
1577;SDS011;57623;53.608;10.004;2024-03-02T06:43:42;22.93;;;18.70;;
1577;SDS011;57623;53.608;10.004;2024-03-02T06:46:10;23.00;;;17.97;;
1577;SDS011;57623;53.608;10.004;2024-03-02T06:48:41;23.83;;;18.70;;
1577;SDS011;57623;53.608;10.004;2024-03-02T06:51:09;24.80;;;19.53;;
1577;SDS011;57623;53.608;10.004;2024-03-02T06:53:37;23.50;;;18.27;;
1577;SDS011;57623;53.608;10.004;2024-03-02T06:56:06;24.40;;;18.00;;
1577;SDS011;57623;53.608;10.004;2024-03-02T06:58:35;21.10;;;17.30;;
1577;SDS011;57623;53.608;10.004;2024-03-02T07:01:03;23.17;;;18.70;;
1577;SDS011;57623;53.608;10.004;2024-03-02T07:03:32;24.27;;;18.27;;
1577;SDS011;57623;53.608;10.004;2024-03-02T07:06:00;22.30;;;17.53;;
1577;SDS011;57623;53.608;10.004;2024-03-02T07:08:29;24.33;;;17.43;;
1577;SDS011;57623;53.608;10.004;2024-03-02T07:10:57;24.73;;;18.40;;
1577;SDS011;57623;53.608;10.004;2024-03-02T07:13:25;20.70;;;17.43;;
1577;SDS011;57623;53.608;10.004;2024-03-02T07:15:54;24.43;;;17.70;;
1577;SDS011;57623;53.608;10.004;2024-03-02T07:18:48;20.80;;;17.50;;
1577;SDS011;57623;53.608;10.004;2024-03-02T07:21:18;22.50;;;18.60;;
1577;SDS011;57623;53.608;10.004;2024-03-02T07:23:48;24.43;;;17.70;;
1577;SDS011;57623;53.608;10.004;2024-03-02T07:26:17;21.90;;;18.10;;
1577;SDS011;57623;53.608;10.004;2024-03-02T07:28:48;21.20;;;17.07;;
1577;SDS011;57623;53.608;10.004;2024-03-02T07:31:18;21.83;;;18.20;;
1577;SDS011;57623;53.608;10.004;2024-03-02T07:33:46;22.73;;;18.43;;
1577;SDS011;57623;53.608;10.004;2024-03-02T07:36:14;22.10;;;17.37;;
1577;SDS011;57623;53.608;10.004;2024-03-02T07:38:42;24.33;;;17.00;;
1577;SDS011;57623;53.608;10.004;2024-03-02T07:41:11;23.97;;;17.83;;
1577;SDS011;57623;53.608;10.004;2024-03-02T07:43:39;22.13;;;17.60;;
1577;SDS011;57623;53.608;10.004;2024-03-02T07:46:07;22.33;;;18.00;;
1577;SDS011;57623;53.608;10.004;2024-03-02T07:48:36;22.87;;;17.90;;
1577;SDS011;57623;53.608;10.004;2024-03-02T07:51:05;22.30;;;17.70;;
1577;SDS011;57623;53.608;10.004;2024-03-02T07:53:33;22.13;;;17.93;;
1577;SDS011;57623;53.608;10.004;2024-03-02T07:56:02;22.87;;;18.67;;
1577;SDS011;57623;53.608;10.004;2024-03-02T07:58:32;24.23;;;17.83;;
1577;SDS011;57623;53.608;10.004;2024-03-02T08:01:01;21.53;;;17.97;;
1577;SDS011;57623;53.608;10.004;2024-03-02T08:03:30;22.77;;;18.30;;
1577;SDS011;57623;53.608;10.004;2024-03-02T08:06:02;23.30;;;18.30;;
1577;SDS011;57623;53.608;10.004;2024-03-02T08:08:30;23.60;;;18.40;;
1577;SDS011;57623;53.608;10.004;2024-03-02T08:10:59;22.83;;;18.50;;
1577;SDS011;57623;53.608;10.004;2024-03-02T08:13:27;25.70;;;19.10;;
1577;SDS011;57623;53.608;10.004;2024-03-02T08:15:55;25.20;;;19.30;;
1577;SDS011;57623;53.608;10.004;2024-03-02T08:18:23;23.20;;;18.47;;
1577;SDS011;57623;53.608;10.004;2024-03-02T08:20:51;23.10;;;18.63;;
1577;SDS011;57623;53.608;10.004;2024-03-02T08:23:21;27.17;;;19.43;;
1577;SDS011;57623;53.608;10.004;2024-03-02T08:25:49;23.80;;;18.40;;
1577;SDS011;57623;53.608;10.004;2024-03-02T08:28:17;22.50;;;18.63;;
1577;SDS011;57623;53.608;10.004;2024-03-02T08:30:46;23.80;;;18.83;;
1577;SDS011;57623;53.608;10.004;2024-03-02T08:33:14;24.87;;;19.30;;
1577;SDS011;57623;53.608;10.004;2024-03-02T08:35:42;25.10;;;19.53;;
1577;SDS011;57623;53.608;10.004;2024-03-02T08:38:10;23.13;;;19.47;;
1577;SDS011;57623;53.608;10.004;2024-03-02T08:40:39;22.60;;;18.40;;
1577;SDS011;57623;53.608;10.004;2024-03-02T08:43:08;22.90;;;19.60;;
1577;SDS011;57623;53.608;10.004;2024-03-02T08:45:36;23.73;;;18.00;;
1577;SDS011;57623;53.608;10.004;2024-03-02T08:48:06;24.53;;;18.93;;
1577;SDS011;57623;53.608;10.004;2024-03-02T08:50:35;26.63;;;19.90;;
1577;SDS011;57623;53.608;10.004;2024-03-02T08:53:03;23.67;;;19.30;;
1577;SDS011;57623;53.608;10.004;2024-03-02T08:55:32;25.07;;;19.50;;
1577;SDS011;57623;53.608;10.004;2024-03-02T08:58:01;24.30;;;18.70;;
1577;SDS011;57623;53.608;10.004;2024-03-02T09:00:29;27.63;;;19.73;;
1577;SDS011;57623;53.608;10.004;2024-03-02T09:02:58;24.37;;;19.03;;
1577;SDS011;57623;53.608;10.004;2024-03-02T09:05:26;21.53;;;17.90;;
1577;SDS011;57623;53.608;10.004;2024-03-02T09:07:54;24.77;;;18.87;;
1577;SDS011;57623;53.608;10.004;2024-03-02T09:10:22;23.80;;;19.50;;
1577;SDS011;57623;53.608;10.004;2024-03-02T09:12:53;24.33;;;18.00;;
1577;SDS011;57623;53.608;10.004;2024-03-02T09:15:23;24.20;;;19.07;;
1577;SDS011;57623;53.608;10.004;2024-03-02T09:17:51;22.90;;;18.77;;
1577;SDS011;57623;53.608;10.004;2024-03-02T09:20:19;22.77;;;17.73;;
1577;SDS011;57623;53.608;10.004;2024-03-02T09:22:47;22.10;;;18.03;;
1577;SDS011;57623;53.608;10.004;2024-03-02T09:25:15;22.00;;;18.60;;
1577;SDS011;57623;53.608;10.004;2024-03-02T09:27:43;22.37;;;17.87;;
1577;SDS011;57623;53.608;10.004;2024-03-02T09:30:11;22.03;;;18.00;;
1577;SDS011;57623;53.608;10.004;2024-03-02T09:32:42;21.53;;;17.63;;
1577;SDS011;57623;53.608;10.004;2024-03-02T09:35:12;23.10;;;17.60;;
1577;SDS011;57623;53.608;10.004;2024-03-02T09:37:40;22.70;;;17.77;;
1577;SDS011;57623;53.608;10.004;2024-03-02T09:40:09;23.10;;;17.97;;
1577;SDS011;57623;53.608;10.004;2024-03-02T09:42:38;24.60;;;17.70;;
1577;SDS011;57623;53.608;10.004;2024-03-02T09:45:06;20.23;;;16.87;;
1577;SDS011;57623;53.608;10.004;2024-03-02T09:47:36;24.77;;;19.00;;
1577;SDS011;57623;53.608;10.004;2024-03-02T09:50:06;19.23;;;16.00;;
1577;SDS011;57623;53.608;10.004;2024-03-02T09:52:35;21.67;;;17.03;;
1577;SDS011;57623;53.608;10.004;2024-03-02T09:55:05;20.40;;;16.70;;
1577;SDS011;57623;53.608;10.004;2024-03-02T09:57:33;21.53;;;17.77;;
1577;SDS011;57623;53.608;10.004;2024-03-02T10:00:05;24.00;;;17.70;;
1577;SDS011;57623;53.608;10.004;2024-03-02T10:02:34;22.93;;;16.73;;
1577;SDS011;57623;53.608;10.004;2024-03-02T10:05:02;24.83;;;18.50;;
1577;SDS011;57623;53.608;10.004;2024-03-02T10:07:32;21.70;;;17.77;;
1577;SDS011;57623;53.608;10.004;2024-03-02T10:10:11;22.60;;;17.97;;
1577;SDS011;57623;53.608;10.004;2024-03-02T10:12:40;21.43;;;16.70;;
1577;SDS011;57623;53.608;10.004;2024-03-02T10:15:08;19.10;;;16.90;;
1577;SDS011;57623;53.608;10.004;2024-03-02T10:17:37;17.60;;;15.70;;
1577;SDS011;57623;53.608;10.004;2024-03-02T10:22:52;17.57;;;15.77;;
1577;SDS011;57623;53.608;10.004;2024-03-02T10:25:29;18.27;;;15.77;;
1577;SDS011;57623;53.608;10.004;2024-03-02T10:28:16;18.63;;;15.33;;
1577;SDS011;57623;53.608;10.004;2024-03-02T10:30:46;15.73;;;14.00;;
1577;SDS011;57623;53.608;10.004;2024-03-02T10:33:17;18.90;;;14.90;;
1577;SDS011;57623;53.608;10.004;2024-03-02T10:35:45;16.17;;;13.23;;
1577;SDS011;57623;53.608;10.004;2024-03-02T10:38:18;15.97;;;13.17;;
1577;SDS011;57623;53.608;10.004;2024-03-02T10:40:47;16.77;;;14.20;;
1577;SDS011;57623;53.608;10.004;2024-03-02T10:43:15;16.77;;;14.03;;
1577;SDS011;57623;53.608;10.004;2024-03-02T10:45:44;15.27;;;13.30;;
1577;SDS011;57623;53.608;10.004;2024-03-02T10:48:15;16.47;;;14.20;;
1577;SDS011;57623;53.608;10.004;2024-03-02T10:50:43;16.00;;;13.33;;
1577;SDS011;57623;53.608;10.004;2024-03-02T10:53:12;15.63;;;12.40;;
1577;SDS011;57623;53.608;10.004;2024-03-02T10:55:41;17.53;;;13.70;;
1577;SDS011;57623;53.608;10.004;2024-03-02T10:58:09;15.00;;;13.40;;
1577;SDS011;57623;53.608;10.004;2024-03-02T11:00:41;15.00;;;12.33;;
1577;SDS011;57623;53.608;10.004;2024-03-02T11:03:12;14.30;;;12.50;;
1577;SDS011;57623;53.608;10.004;2024-03-02T11:05:43;14.67;;;13.10;;
1577;SDS011;57623;53.608;10.004;2024-03-02T11:08:12;14.07;;;12.60;;
1577;SDS011;57623;53.608;10.004;2024-03-02T11:10:49;13.57;;;12.00;;
1577;SDS011;57623;53.608;10.004;2024-03-02T11:13:20;13.10;;;11.80;;
1577;SDS011;57623;53.608;10.004;2024-03-02T11:15:52;13.17;;;11.40;;
1577;SDS011;57623;53.608;10.004;2024-03-02T11:18:23;13.30;;;11.47;;
1577;SDS011;57623;53.608;10.004;2024-03-02T11:20:51;12.43;;;11.10;;
1577;SDS011;57623;53.608;10.004;2024-03-02T11:23:21;11.80;;;10.57;;
1577;SDS011;57623;53.608;10.004;2024-03-02T11:28:47;11.37;;;10.27;;
1577;SDS011;57623;53.608;10.004;2024-03-02T11:31:15;11.30;;;10.27;;
1577;SDS011;57623;53.608;10.004;2024-03-02T11:33:43;13.03;;;9.60;;
1577;SDS011;57623;53.608;10.004;2024-03-02T11:36:11;15.03;;;10.23;;
1577;SDS011;57623;53.608;10.004;2024-03-02T11:38:39;10.17;;;9.13;;
1577;SDS011;57623;53.608;10.004;2024-03-02T11:41:11;10.33;;;9.07;;
1577;SDS011;57623;53.608;10.004;2024-03-02T11:43:42;12.30;;;10.30;;
1577;SDS011;57623;53.608;10.004;2024-03-02T11:46:11;11.50;;;10.17;;
1577;SDS011;57623;53.608;10.004;2024-03-02T11:48:40;10.10;;;8.80;;
1577;SDS011;57623;53.608;10.004;2024-03-02T11:51:08;9.33;;;8.33;;
1577;SDS011;57623;53.608;10.004;2024-03-02T11:53:38;9.80;;;8.57;;
1577;SDS011;57623;53.608;10.004;2024-03-02T11:56:06;9.70;;;8.70;;
1577;SDS011;57623;53.608;10.004;2024-03-02T11:58:38;9.70;;;8.50;;
1577;SDS011;57623;53.608;10.004;2024-03-02T12:01:09;9.13;;;8.23;;
1577;SDS011;57623;53.608;10.004;2024-03-02T12:03:38;10.37;;;8.30;;
1577;SDS011;57623;53.608;10.004;2024-03-02T12:06:07;9.03;;;8.13;;
1577;SDS011;57623;53.608;10.004;2024-03-02T12:08:35;8.63;;;7.63;;
1577;SDS011;57623;53.608;10.004;2024-03-02T12:11:04;9.33;;;8.30;;
1577;SDS011;57623;53.608;10.004;2024-03-02T12:13:33;8.90;;;7.93;;
1577;SDS011;57623;53.608;10.004;2024-03-02T12:16:01;9.13;;;7.47;;
1577;SDS011;57623;53.608;10.004;2024-03-02T12:18:31;9.07;;;7.50;;
1577;SDS011;57623;53.608;10.004;2024-03-02T12:20:59;8.07;;;7.27;;
1577;SDS011;57623;53.608;10.004;2024-03-02T12:23:29;7.60;;;6.80;;
1577;SDS011;57623;53.608;10.004;2024-03-02T12:25:57;9.33;;;8.33;;
1577;SDS011;57623;53.608;10.004;2024-03-02T12:28:25;8.70;;;7.10;;
1577;SDS011;57623;53.608;10.004;2024-03-02T12:30:53;12.80;;;8.53;;
1577;SDS011;57623;53.608;10.004;2024-03-02T12:33:22;8.57;;;7.70;;
1577;SDS011;57623;53.608;10.004;2024-03-02T12:35:52;9.80;;;8.57;;
1577;SDS011;57623;53.608;10.004;2024-03-02T12:38:19;8.93;;;7.93;;
1577;SDS011;57623;53.608;10.004;2024-03-02T12:40:51;11.00;;;7.43;;
1577;SDS011;57623;53.608;10.004;2024-03-02T12:43:19;9.40;;;7.80;;
1577;SDS011;57623;53.608;10.004;2024-03-02T12:45:49;11.67;;;8.27;;
1577;SDS011;57623;53.608;10.004;2024-03-02T12:48:17;10.90;;;8.40;;
1577;SDS011;57623;53.608;10.004;2024-03-02T12:50:45;9.13;;;8.23;;
1577;SDS011;57623;53.608;10.004;2024-03-02T12:53:15;8.47;;;7.57;;
1577;SDS011;57623;53.608;10.004;2024-03-02T12:55:43;8.30;;;6.47;;
1577;SDS011;57623;53.608;10.004;2024-03-02T12:58:16;7.83;;;7.00;;
1577;SDS011;57623;53.608;10.004;2024-03-02T13:00:45;9.37;;;8.13;;
1577;SDS011;57623;53.608;10.004;2024-03-02T13:03:13;8.50;;;7.20;;
1577;SDS011;57623;53.608;10.004;2024-03-02T13:05:47;9.90;;;7.80;;
1577;SDS011;57623;53.608;10.004;2024-03-02T13:08:17;11.90;;;7.80;;
1577;SDS011;57623;53.608;10.004;2024-03-02T13:10:46;10.43;;;6.80;;
1577;SDS011;57623;53.608;10.004;2024-03-02T13:13:14;9.50;;;8.50;;
1577;SDS011;57623;53.608;10.004;2024-03-02T13:15:42;9.80;;;8.10;;
1577;SDS011;57623;53.608;10.004;2024-03-02T13:18:11;12.17;;;9.27;;
1577;SDS011;57623;53.608;10.004;2024-03-02T13:20:40;9.47;;;8.57;;
1577;SDS011;57623;53.608;10.004;2024-03-02T13:23:08;9.73;;;8.73;;
1577;SDS011;57623;53.608;10.004;2024-03-02T13:25:37;10.30;;;9.20;;
1577;SDS011;57623;53.608;10.004;2024-03-02T13:28:05;10.07;;;9.07;;
1577;SDS011;57623;53.608;10.004;2024-03-02T13:30:34;10.30;;;9.20;;
1577;SDS011;57623;53.608;10.004;2024-03-02T13:33:03;11.20;;;9.17;;
1577;SDS011;57623;53.608;10.004;2024-03-02T13:35:31;10.30;;;8.83;;
1577;SDS011;57623;53.608;10.004;2024-03-02T13:37:59;10.87;;;9.40;;
1577;SDS011;57623;53.608;10.004;2024-03-02T13:40:27;9.30;;;8.50;;
1577;SDS011;57623;53.608;10.004;2024-03-02T13:42:58;8.83;;;8.03;;
1577;SDS011;57623;53.608;10.004;2024-03-02T13:45:26;10.60;;;8.70;;
1577;SDS011;57623;53.608;10.004;2024-03-02T13:47:55;10.50;;;8.87;;
1577;SDS011;57623;53.608;10.004;2024-03-02T13:50:23;9.20;;;8.20;;
1577;SDS011;57623;53.608;10.004;2024-03-02T13:52:51;9.27;;;8.07;;
1577;SDS011;57623;53.608;10.004;2024-03-02T13:55:19;9.47;;;8.57;;
1577;SDS011;57623;53.608;10.004;2024-03-02T13:57:47;9.60;;;8.60;;
1577;SDS011;57623;53.608;10.004;2024-03-02T14:00:18;11.80;;;9.70;;
1577;SDS011;57623;53.608;10.004;2024-03-02T14:02:46;9.23;;;8.30;;
1577;SDS011;57623;53.608;10.004;2024-03-02T14:05:15;11.40;;;9.40;;
1577;SDS011;57623;53.608;10.004;2024-03-02T14:07:44;10.87;;;9.77;;
1577;SDS011;57623;53.608;10.004;2024-03-02T14:10:12;11.10;;;10.00;;
1577;SDS011;57623;53.608;10.004;2024-03-02T14:12:41;10.30;;;9.30;;
1577;SDS011;57623;53.608;10.004;2024-03-02T14:15:09;11.20;;;10.10;;
1577;SDS011;57623;53.608;10.004;2024-03-02T14:17:39;11.43;;;10.33;;
1577;SDS011;57623;53.608;10.004;2024-03-02T14:20:07;11.33;;;9.90;;
1577;SDS011;57623;53.608;10.004;2024-03-02T14:22:36;11.37;;;10.27;;
1577;SDS011;57623;53.608;10.004;2024-03-02T14:25:04;10.60;;;9.50;;
1577;SDS011;57623;53.608;10.004;2024-03-02T14:27:33;11.23;;;10.00;;
1577;SDS011;57623;53.608;10.004;2024-03-02T14:30:22;10.90;;;9.63;;
1577;SDS011;57623;53.608;10.004;2024-03-02T14:32:52;10.77;;;9.20;;
1577;SDS011;57623;53.608;10.004;2024-03-02T14:35:20;10.60;;;9.37;;
1577;SDS011;57623;53.608;10.004;2024-03-02T14:37:49;10.63;;;9.50;;
1577;SDS011;57623;53.608;10.004;2024-03-02T14:40:17;10.30;;;9.20;;
1577;SDS011;57623;53.608;10.004;2024-03-02T14:42:47;10.30;;;9.20;;